Newbiggin-by-the-Sea, United Kingdom
Current Conditions -  °F | °C
As of 8:20 AM on Friday 19 Dec 2014 (Local Time) from EGNT Reporting Station
Light Rain Light Rain  
Wind Chill: 29°   Ceiling: Unl
Heat Index: 39°   Visibility: 6mi
Dew Point: 36°   Wind: 21mph
Humidity: 87%   Direction: 270°W
Pressure: 29.59"   Gusts: NA
Location:  55.19°N, 1.51°W
Report Text: EGNT 190820Z 27018KT 9999 -RA FEW010 04/02 Q1002 RERA
Loading
Personal Weather Stations






























Interactive Weather Map New forecast layout! Learn more

10-Day Weather Forecast

Advertisements
Track Severe Weather on mobile